메인 페이지
METAR-TAF:

METAR-TAF

공항 :

Bridgeport Municipal Airport

Bridgeport, 텍사스, 미국

위도: 33-10-31N, 경도: 097-49-42W, 고도: 260m

현재 날씨관측

예보는 44분 전, 12:55시(UTC)에 발표되었습니다.
북동7kt
온도 18°C
습도 94%
기압 1020 hPa
시정: 16.1km
고도 1700ft 상공 흐림
약한이슬비

METAR: KXBP 261255Z AUTO 05007KT 10SM -DZ OVC017 18/17 A3013 RMK AO2 P0001 T01830166

시각: 08:39 (13:39 UTC)


TAF: 누락

4,000개 이상의 공항 관측 자료 및 예보 (METAR 및 TAF 보고).

지도상에서 검색 가능한 기상관측소가 노란 점과 빨간 점으로 표시되어 있습니다.

기상관측소 명을 보려면 표시 위로 마우스를 이동하세요.

날씨 관측과 예보를 보려면 클릭하세요.

지도 변경 : 확대하려면 엑스 표시가 있는 녹색 버튼, 축소하려면 빼기 표시가 있는 녹색 버튼, 다음 페이지의 지도를 보려면 녹색 화살표를 클릭하세요.


METAR-TAF: